Nearby METAR Reports

 

KPRB - Paso Robles, California, USA
Distance from station: SW 1mi, 1km
Updated: 07/30/2016 8:53am
Clear
Clear
 Wind from calm
Wind: Calm
Temperature: 72°F , 22°C
Dew Point: 52°F , 11°C
Humidity: 50%
Barometer: 29.85 inHg , 1010.8 hPa
Clouds: Clear
Visibility: 10 miles , 16 km
2016/07/30 15:53 KPRB 301553Z AUTO 00000KT 10SM CLR 22/11 A2985 RMK AO2 SLP098 T02220106 TSNO
KSBP - San Luis Obispo, California, USA
Distance from station: S 30mi, 49km
Updated: 07/30/2016 9:18am
Haze, Partly cloudy
Haze, Partly cloudy
 Wind from calm
Wind: Calm
Temperature: 63°F , 17°C
Dew Point: 55°F , 13°C
Humidity: 77%
Barometer: 29.88 inHg , 1011.9 hPa
Summary: Haze
Clouds: Partly cloudy
Visibility: 6 miles , 10 km
Cloud details: Partly cloudy 600 ft
2016/07/30 16:18 KSBP 301618Z 00000KT 6SM HZ SCT006 17/13 A2988 RMK AO2 T01720133
 
KSMX - Santa Maria, California, USA
Distance from station: S 54mi, 87km
Updated: 07/30/2016 8:51am
Haze, Few clouds
Haze, Few clouds
 Wind from varies
Wind: varies 3 mph , 6 km/h
Temperature: 63°F , 17°C
Dew Point: 55°F , 13°C
Humidity: 77%
Barometer: 29.88 inHg , 1011.9 hPa
Summary: Haze
Clouds: Few Clouds
Visibility: 6 miles , 10 km
Cloud details: Few Clouds 700 ft
2016/07/30 15:51 KSMX 301551Z VRB03KT 6SM HZ FEW007 17/13 A2988 RMK AO2 SLP121 T01670133
KNLC - Lemoore Nas/Reev, California, USA
Distance from station: NE 58mi, 94km
Updated: 07/30/2016 8:56am
Clear
Clear
 Wind from NNW
Wind: NNW 6 mph , 9 km/h
Temperature: 88°F , 31°C
Dew Point: 45°F , 7°C
Humidity: 22%
Barometer: 29.77 inHg , 1008.1 hPa
Clouds: Clear
Visibility: 10 miles , 16 km
2016/07/30 15:56 KNLC 301556Z AUTO 34005KT 10SM CLR 31/07 A2977 RMK AO2 SLP080 T03110067
 
KVBG - Vandenberg Afb, California, USA
Distance from station: S 65mi, 105km
Updated: 07/30/2016 9:33am
Mostly cloudy
Mostly cloudy
 Wind from varies
Wind: varies 2 mph , 4 km/h
Temperature: 57°F , 14°C
Dew Point: 57°F , 14°C
Humidity: 100%
Barometer: 29.89 inHg , 1012.2 hPa
Clouds: Mostly cloudy
Visibility: 10 miles , 16 km
Cloud details: Mostly cloudy 400 ft
2016/07/30 16:33 KVBG 301633Z AUTO VRB02KT 10SM BKN004 14/14 A2989 RMK AO2 BKN V OVC
KLPC - Lompoc, California, USA
Distance from station: S 70mi, 113km
Updated: 07/30/2016 9:04am
Partly cloudy
Partly cloudy
 Wind from calm
Wind: Calm
Temperature: 61°F , 16°C
Dew Point: 55°F , 13°C
Humidity: 83%
Barometer: 29.88 inHg , 1011.9 hPa
Clouds: Partly cloudy
Visibility: 10 miles , 16 km
Cloud details: Partly cloudy 700 ft
2016/07/30 16:04 KLPC 301604Z AUTO 00000KT 10SM SCT007 16/13 A2988 RMK AO2
 
KHJO - Hanford, California, USA
Distance from station: NE 72mi, 116km
Updated: 07/30/2016 8:53am
Clear
Clear
 Wind from calm
Wind: Calm
Temperature: 84°F , 29°C
Dew Point: 50°F , 10°C
Humidity: 31%
Barometer: 29.78 inHg , 1008.5 hPa
Clouds: Clear
Visibility: 10 miles , 16 km
2016/07/30 15:53 KHJO 301553Z AUTO 00000KT 10SM CLR 29/10 A2978 RMK AO2 SLP083 T02890100